sensor_id;sensor_type;location;lat;lon;timestamp;P1;durP1;ratioP1;P2;durP2;ratioP2
46675;SDS011;32412;51.478;5.694;2023-07-28T00:00:22;7.03;;;4.65;;
46675;SDS011;32412;51.478;5.694;2023-07-28T00:02:47;8.60;;;5.38;;
46675;SDS011;32412;51.478;5.694;2023-07-28T00:05:13;8.02;;;5.13;;
46675;SDS011;32412;51.478;5.694;2023-07-28T00:07:38;8.25;;;4.95;;
46675;SDS011;32412;51.478;5.694;2023-07-28T00:10:04;9.40;;;5.38;;
46675;SDS011;32412;51.478;5.694;2023-07-28T00:12:30;9.23;;;5.03;;
46675;SDS011;32412;51.478;5.694;2023-07-28T00:14:56;10.85;;;5.45;;
46675;SDS011;32412;51.478;5.694;2023-07-28T00:17:21;29.05;;;6.43;;
46675;SDS011;32412;51.478;5.694;2023-07-28T00:19:47;8.48;;;5.35;;
46675;SDS011;32412;51.478;5.694;2023-07-28T00:22:13;8.90;;;5.55;;
46675;SDS011;32412;51.478;5.694;2023-07-28T00:24:38;9.23;;;5.80;;
46675;SDS011;32412;51.478;5.694;2023-07-28T00:27:04;11.85;;;5.25;;
46675;SDS011;32412;51.478;5.694;2023-07-28T00:29:30;9.43;;;5.47;;
46675;SDS011;32412;51.478;5.694;2023-07-28T00:31:55;12.80;;;5.78;;
46675;SDS011;32412;51.478;5.694;2023-07-28T00:34:21;7.90;;;5.22;;
46675;SDS011;32412;51.478;5.694;2023-07-28T00:36:47;10.10;;;5.78;;
46675;SDS011;32412;51.478;5.694;2023-07-28T00:39:12;9.30;;;5.78;;
46675;SDS011;32412;51.478;5.694;2023-07-28T00:41:38;10.00;;;6.00;;
46675;SDS011;32412;51.478;5.694;2023-07-28T00:44:04;11.82;;;6.18;;
46675;SDS011;32412;51.478;5.694;2023-07-28T00:46:30;9.48;;;5.80;;
46675;SDS011;32412;51.478;5.694;2023-07-28T00:48:56;10.55;;;5.55;;
46675;SDS011;32412;51.478;5.694;2023-07-28T00:51:21;10.32;;;6.15;;
46675;SDS011;32412;51.478;5.694;2023-07-28T00:53:47;10.18;;;6.18;;
46675;SDS011;32412;51.478;5.694;2023-07-28T00:56:13;10.40;;;5.55;;
46675;SDS011;32412;51.478;5.694;2023-07-28T00:58:40;9.70;;;5.63;;
46675;SDS011;32412;51.478;5.694;2023-07-28T01:01:05;8.75;;;5.78;;
46675;SDS011;32412;51.478;5.694;2023-07-28T01:03:31;10.20;;;5.72;;
46675;SDS011;32412;51.478;5.694;2023-07-28T01:08:49;8.70;;;5.60;;
46675;SDS011;32412;51.478;5.694;2023-07-28T01:11:28;9.80;;;5.35;;
46675;SDS011;32412;51.478;5.694;2023-07-28T01:13:54;9.82;;;6.00;;
46675;SDS011;32412;51.478;5.694;2023-07-28T01:16:20;10.52;;;6.18;;
46675;SDS011;32412;51.478;5.694;2023-07-28T01:18:46;9.82;;;5.97;;
46675;SDS011;32412;51.478;5.694;2023-07-28T01:21:21;11.13;;;6.22;;
46675;SDS011;32412;51.478;5.694;2023-07-28T01:26:42;9.35;;;5.40;;
46675;SDS011;32412;51.478;5.694;2023-07-28T01:29:09;10.32;;;6.05;;
46675;SDS011;32412;51.478;5.694;2023-07-28T01:31:36;10.93;;;5.70;;
46675;SDS011;32412;51.478;5.694;2023-07-28T01:34:01;9.68;;;6.13;;
46675;SDS011;32412;51.478;5.694;2023-07-28T01:36:27;11.77;;;6.10;;
46675;SDS011;32412;51.478;5.694;2023-07-28T01:38:52;11.38;;;5.95;;
46675;SDS011;32412;51.478;5.694;2023-07-28T01:41:19;9.30;;;5.32;;
46675;SDS011;32412;51.478;5.694;2023-07-28T01:43:44;9.90;;;5.38;;
46675;SDS011;32412;51.478;5.694;2023-07-28T01:46:10;10.80;;;6.05;;
46675;SDS011;32412;51.478;5.694;2023-07-28T01:48:35;11.05;;;5.82;;
46675;SDS011;32412;51.478;5.694;2023-07-28T01:51:01;10.68;;;5.72;;
46675;SDS011;32412;51.478;5.694;2023-07-28T01:53:27;12.68;;;5.72;;
46675;SDS011;32412;51.478;5.694;2023-07-28T01:55:52;10.82;;;5.88;;
46675;SDS011;32412;51.478;5.694;2023-07-28T01:58:18;10.75;;;5.57;;
46675;SDS011;32412;51.478;5.694;2023-07-28T02:00:43;10.60;;;6.05;;
46675;SDS011;32412;51.478;5.694;2023-07-28T02:03:11;10.20;;;5.47;;
46675;SDS011;32412;51.478;5.694;2023-07-28T02:05:37;11.77;;;6.03;;
46675;SDS011;32412;51.478;5.694;2023-07-28T02:08:02;15.32;;;6.43;;
46675;SDS011;32412;51.478;5.694;2023-07-28T02:10:28;13.73;;;6.15;;
46675;SDS011;32412;51.478;5.694;2023-07-28T02:12:54;13.85;;;5.95;;
46675;SDS011;32412;51.478;5.694;2023-07-28T02:15:20;11.18;;;5.72;;
46675;SDS011;32412;51.478;5.694;2023-07-28T02:17:45;9.68;;;5.45;;
46675;SDS011;32412;51.478;5.694;2023-07-28T02:20:11;11.55;;;5.88;;
46675;SDS011;32412;51.478;5.694;2023-07-28T02:22:38;12.95;;;6.30;;
46675;SDS011;32412;51.478;5.694;2023-07-28T02:25:05;13.30;;;6.15;;
46675;SDS011;32412;51.478;5.694;2023-07-28T02:27:30;12.95;;;6.97;;
46675;SDS011;32412;51.478;5.694;2023-07-28T02:29:56;16.52;;;7.30;;
46675;SDS011;32412;51.478;5.694;2023-07-28T02:32:22;12.00;;;6.32;;
46675;SDS011;32412;51.478;5.694;2023-07-28T02:34:48;16.38;;;7.38;;
46675;SDS011;32412;51.478;5.694;2023-07-28T02:37:14;17.35;;;8.13;;
46675;SDS011;32412;51.478;5.694;2023-07-28T02:39:40;15.10;;;7.72;;
46675;SDS011;32412;51.478;5.694;2023-07-28T02:42:06;17.35;;;7.88;;
46675;SDS011;32412;51.478;5.694;2023-07-28T02:44:32;14.35;;;6.97;;
46675;SDS011;32412;51.478;5.694;2023-07-28T02:46:57;17.27;;;7.80;;
46675;SDS011;32412;51.478;5.694;2023-07-28T02:49:23;18.92;;;7.30;;
46675;SDS011;32412;51.478;5.694;2023-07-28T02:51:48;17.42;;;7.35;;
46675;SDS011;32412;51.478;5.694;2023-07-28T02:54:14;21.15;;;7.75;;
46675;SDS011;32412;51.478;5.694;2023-07-28T02:56:40;16.38;;;8.18;;
46675;SDS011;32412;51.478;5.694;2023-07-28T02:59:05;20.02;;;9.23;;
46675;SDS011;32412;51.478;5.694;2023-07-28T03:01:31;23.30;;;9.65;;
46675;SDS011;32412;51.478;5.694;2023-07-28T03:03:58;19.13;;;9.73;;
46675;SDS011;32412;51.478;5.694;2023-07-28T03:06:25;20.80;;;9.75;;
46675;SDS011;32412;51.478;5.694;2023-07-28T03:08:51;23.00;;;9.68;;
46675;SDS011;32412;51.478;5.694;2023-07-28T03:11:16;22.00;;;9.95;;
46675;SDS011;32412;51.478;5.694;2023-07-28T03:13:42;22.38;;;10.10;;
46675;SDS011;32412;51.478;5.694;2023-07-28T03:16:08;25.02;;;11.10;;
46675;SDS011;32412;51.478;5.694;2023-07-28T03:18:34;23.52;;;11.15;;
46675;SDS011;32412;51.478;5.694;2023-07-28T03:20:59;27.25;;;10.93;;
46675;SDS011;32412;51.478;5.694;2023-07-28T03:23:25;27.65;;;12.52;;
46675;SDS011;32412;51.478;5.694;2023-07-28T03:25:51;28.13;;;11.88;;
46675;SDS011;32412;51.478;5.694;2023-07-28T03:28:17;30.90;;;12.55;;
46675;SDS011;32412;51.478;5.694;2023-07-28T03:30:43;31.08;;;12.35;;
46675;SDS011;32412;51.478;5.694;2023-07-28T03:33:08;32.63;;;13.32;;
46675;SDS011;32412;51.478;5.694;2023-07-28T03:35:34;32.63;;;13.57;;
46675;SDS011;32412;51.478;5.694;2023-07-28T03:37:59;33.75;;;13.55;;
46675;SDS011;32412;51.478;5.694;2023-07-28T03:40:25;30.58;;;12.85;;
46675;SDS011;32412;51.478;5.694;2023-07-28T03:42:51;32.22;;;12.98;;
46675;SDS011;32412;51.478;5.694;2023-07-28T03:45:17;32.65;;;14.18;;
46675;SDS011;32412;51.478;5.694;2023-07-28T03:47:43;35.55;;;13.90;;
46675;SDS011;32412;51.478;5.694;2023-07-28T03:50:09;37.55;;;15.18;;
46675;SDS011;32412;51.478;5.694;2023-07-28T03:52:35;39.65;;;15.13;;
46675;SDS011;32412;51.478;5.694;2023-07-28T03:55:00;38.78;;;14.10;;
46675;SDS011;32412;51.478;5.694;2023-07-28T03:57:26;35.50;;;15.00;;
46675;SDS011;32412;51.478;5.694;2023-07-28T03:59:52;37.67;;;15.32;;
46675;SDS011;32412;51.478;5.694;2023-07-28T04:02:17;38.95;;;15.80;;
46675;SDS011;32412;51.478;5.694;2023-07-28T04:04:43;39.08;;;15.45;;
46675;SDS011;32412;51.478;5.694;2023-07-28T04:07:09;37.53;;;15.07;;
46675;SDS011;32412;51.478;5.694;2023-07-28T04:09:34;35.15;;;15.23;;
46675;SDS011;32412;51.478;5.694;2023-07-28T04:12:00;36.03;;;15.27;;
46675;SDS011;32412;51.478;5.694;2023-07-28T04:14:26;39.25;;;16.48;;
46675;SDS011;32412;51.478;5.694;2023-07-28T04:16:51;40.55;;;16.23;;
46675;SDS011;32412;51.478;5.694;2023-07-28T04:19:17;38.42;;;16.00;;
46675;SDS011;32412;51.478;5.694;2023-07-28T04:21:42;37.20;;;16.60;;
46675;SDS011;32412;51.478;5.694;2023-07-28T04:24:08;34.30;;;16.38;;
46675;SDS011;32412;51.478;5.694;2023-07-28T04:26:34;34.90;;;16.77;;
46675;SDS011;32412;51.478;5.694;2023-07-28T04:29:00;35.00;;;16.48;;
46675;SDS011;32412;51.478;5.694;2023-07-28T04:31:26;33.75;;;16.52;;
46675;SDS011;32412;51.478;5.694;2023-07-28T04:33:52;37.17;;;15.68;;
46675;SDS011;32412;51.478;5.694;2023-07-28T04:36:17;36.80;;;16.88;;
46675;SDS011;32412;51.478;5.694;2023-07-28T04:38:43;31.20;;;16.33;;
46675;SDS011;32412;51.478;5.694;2023-07-28T04:41:09;33.13;;;16.40;;
46675;SDS011;32412;51.478;5.694;2023-07-28T04:43:34;36.05;;;16.40;;
46675;SDS011;32412;51.478;5.694;2023-07-28T04:46:00;32.22;;;16.17;;
46675;SDS011;32412;51.478;5.694;2023-07-28T04:48:26;33.63;;;16.13;;
46675;SDS011;32412;51.478;5.694;2023-07-28T04:50:52;36.25;;;16.80;;
46675;SDS011;32412;51.478;5.694;2023-07-28T04:53:18;36.72;;;18.05;;
46675;SDS011;32412;51.478;5.694;2023-07-28T04:55:43;33.38;;;16.83;;
46675;SDS011;32412;51.478;5.694;2023-07-28T04:58:09;35.85;;;17.98;;
46675;SDS011;32412;51.478;5.694;2023-07-28T05:00:34;38.22;;;17.90;;
46675;SDS011;32412;51.478;5.694;2023-07-28T05:03:00;45.42;;;18.10;;
46675;SDS011;32412;51.478;5.694;2023-07-28T05:05:26;36.75;;;18.45;;
46675;SDS011;32412;51.478;5.694;2023-07-28T05:07:53;46.08;;;18.77;;
46675;SDS011;32412;51.478;5.694;2023-07-28T05:10:19;40.20;;;17.95;;
46675;SDS011;32412;51.478;5.694;2023-07-28T05:12:44;43.50;;;19.45;;
46675;SDS011;32412;51.478;5.694;2023-07-28T05:15:10;39.90;;;18.25;;
46675;SDS011;32412;51.478;5.694;2023-07-28T05:17:36;38.47;;;19.42;;
46675;SDS011;32412;51.478;5.694;2023-07-28T05:20:02;45.05;;;19.85;;
46675;SDS011;32412;51.478;5.694;2023-07-28T05:22:28;41.40;;;19.48;;
46675;SDS011;32412;51.478;5.694;2023-07-28T05:24:54;46.47;;;20.67;;
46675;SDS011;32412;51.478;5.694;2023-07-28T05:27:19;44.17;;;20.38;;
46675;SDS011;32412;51.478;5.694;2023-07-28T05:29:45;43.60;;;20.52;;
46675;SDS011;32412;51.478;5.694;2023-07-28T05:32:11;38.03;;;19.98;;
46675;SDS011;32412;51.478;5.694;2023-07-28T05:34:36;38.90;;;20.73;;
46675;SDS011;32412;51.478;5.694;2023-07-28T05:37:02;39.38;;;19.42;;
46675;SDS011;32412;51.478;5.694;2023-07-28T05:39:28;45.67;;;21.05;;
46675;SDS011;32412;51.478;5.694;2023-07-28T05:41:54;39.88;;;21.20;;
46675;SDS011;32412;51.478;5.694;2023-07-28T05:44:19;39.58;;;21.08;;
46675;SDS011;32412;51.478;5.694;2023-07-28T05:46:45;42.17;;;22.23;;
46675;SDS011;32412;51.478;5.694;2023-07-28T05:49:13;50.53;;;25.05;;
46675;SDS011;32412;51.478;5.694;2023-07-28T05:51:39;47.03;;;24.60;;
46675;SDS011;32412;51.478;5.694;2023-07-28T05:54:04;53.72;;;26.08;;
46675;SDS011;32412;51.478;5.694;2023-07-28T05:56:30;55.53;;;27.13;;
46675;SDS011;32412;51.478;5.694;2023-07-28T05:58:55;64.35;;;29.05;;
46675;SDS011;32412;51.478;5.694;2023-07-28T06:01:22;59.00;;;28.92;;
46675;SDS011;32412;51.478;5.694;2023-07-28T06:03:47;71.28;;;32.67;;
46675;SDS011;32412;51.478;5.694;2023-07-28T06:06:13;66.68;;;30.45;;
46675;SDS011;32412;51.478;5.694;2023-07-28T06:08:38;68.22;;;32.90;;
46675;SDS011;32412;51.478;5.694;2023-07-28T06:11:05;65.10;;;31.05;;
46675;SDS011;32412;51.478;5.694;2023-07-28T06:13:31;62.22;;;30.35;;
46675;SDS011;32412;51.478;5.694;2023-07-28T06:15:58;66.47;;;30.70;;
46675;SDS011;32412;51.478;5.694;2023-07-28T06:18:24;59.97;;;29.70;;
46675;SDS011;32412;51.478;5.694;2023-07-28T06:20:50;57.88;;;28.80;;
46675;SDS011;32412;51.478;5.694;2023-07-28T06:23:15;52.03;;;27.98;;
46675;SDS011;32412;51.478;5.694;2023-07-28T06:25:41;55.97;;;27.80;;
46675;SDS011;32412;51.478;5.694;2023-07-28T06:28:09;47.45;;;25.05;;
46675;SDS011;32412;51.478;5.694;2023-07-28T06:30:36;46.42;;;23.75;;
46675;SDS011;32412;51.478;5.694;2023-07-28T06:33:02;41.67;;;21.85;;
46675;SDS011;32412;51.478;5.694;2023-07-28T06:35:28;47.55;;;24.02;;
46675;SDS011;32412;51.478;5.694;2023-07-28T06:37:54;41.53;;;21.30;;
46675;SDS011;32412;51.478;5.694;2023-07-28T06:40:19;42.08;;;20.70;;
46675;SDS011;32412;51.478;5.694;2023-07-28T06:42:45;35.03;;;18.98;;
46675;SDS011;32412;51.478;5.694;2023-07-28T06:45:11;36.85;;;18.63;;
46675;SDS011;32412;51.478;5.694;2023-07-28T06:47:37;28.02;;;16.23;;
46675;SDS011;32412;51.478;5.694;2023-07-28T06:50:03;33.28;;;16.20;;
46675;SDS011;32412;51.478;5.694;2023-07-28T06:52:30;32.42;;;15.02;;
46675;SDS011;32412;51.478;5.694;2023-07-28T06:54:56;26.15;;;13.90;;
46675;SDS011;32412;51.478;5.694;2023-07-28T06:57:21;20.90;;;13.20;;
46675;SDS011;32412;51.478;5.694;2023-07-28T06:59:47;20.95;;;12.25;;
46675;SDS011;32412;51.478;5.694;2023-07-28T07:02:13;22.00;;;12.77;;
46675;SDS011;32412;51.478;5.694;2023-07-28T07:04:40;22.25;;;12.38;;
46675;SDS011;32412;51.478;5.694;2023-07-28T07:07:06;17.40;;;10.93;;
46675;SDS011;32412;51.478;5.694;2023-07-28T07:09:32;19.25;;;11.15;;
46675;SDS011;32412;51.478;5.694;2023-07-28T07:11:57;18.70;;;11.07;;
46675;SDS011;32412;51.478;5.694;2023-07-28T07:14:23;14.80;;;9.50;;
46675;SDS011;32412;51.478;5.694;2023-07-28T07:16:49;16.00;;;10.15;;
46675;SDS011;32412;51.478;5.694;2023-07-28T07:19:14;15.10;;;10.05;;
46675;SDS011;32412;51.478;5.694;2023-07-28T07:21:41;13.43;;;8.73;;
46675;SDS011;32412;51.478;5.694;2023-07-28T07:24:07;14.15;;;9.27;;
46675;SDS011;32412;51.478;5.694;2023-07-28T07:26:35;12.43;;;8.32;;
46675;SDS011;32412;51.478;5.694;2023-07-28T07:29:00;10.20;;;8.20;;
46675;SDS011;32412;51.478;5.694;2023-07-28T07:31:26;11.48;;;8.13;;
46675;SDS011;32412;51.478;5.694;2023-07-28T07:33:52;14.15;;;9.00;;
46675;SDS011;32412;51.478;5.694;2023-07-28T07:36:18;14.52;;;8.65;;
46675;SDS011;32412;51.478;5.694;2023-07-28T07:38:44;11.90;;;8.57;;
46675;SDS011;32412;51.478;5.694;2023-07-28T07:41:11;12.00;;;8.18;;
46675;SDS011;32412;51.478;5.694;2023-07-28T07:43:38;13.18;;;7.90;;
46675;SDS011;32412;51.478;5.694;2023-07-28T07:46:04;10.68;;;7.75;;
46675;SDS011;32412;51.478;5.694;2023-07-28T07:48:29;10.80;;;8.13;;
46675;SDS011;32412;51.478;5.694;2023-07-28T07:50:55;11.60;;;8.20;;
46675;SDS011;32412;51.478;5.694;2023-07-28T07:53:21;10.57;;;7.43;;
46675;SDS011;32412;51.478;5.694;2023-07-28T07:55:47;8.43;;;7.15;;
46675;SDS011;32412;51.478;5.694;2023-07-28T07:58:14;10.10;;;6.95;;
46675;SDS011;32412;51.478;5.694;2023-07-28T08:00:39;8.95;;;7.00;;
46675;SDS011;32412;51.478;5.694;2023-07-28T08:03:05;8.20;;;5.93;;
46675;SDS011;32412;51.478;5.694;2023-07-28T08:05:31;8.82;;;6.05;;
46675;SDS011;32412;51.478;5.694;2023-07-28T08:07:57;8.18;;;5.53;;
46675;SDS011;32412;51.478;5.694;2023-07-28T08:10:22;7.53;;;6.30;;
46675;SDS011;32412;51.478;5.694;2023-07-28T08:12:48;6.00;;;5.03;;
46675;SDS011;32412;51.478;5.694;2023-07-28T08:15:14;6.90;;;5.63;;
46675;SDS011;32412;51.478;5.694;2023-07-28T08:17:40;8.95;;;5.50;;
46675;SDS011;32412;51.478;5.694;2023-07-28T08:20:06;5.72;;;5.20;;
46675;SDS011;32412;51.478;5.694;2023-07-28T08:22:33;6.00;;;5.22;;
46675;SDS011;32412;51.478;5.694;2023-07-28T08:24:58;5.65;;;5.15;;
46675;SDS011;32412;51.478;5.694;2023-07-28T08:27:24;5.85;;;4.32;;
46675;SDS011;32412;51.478;5.694;2023-07-28T08:29:50;5.88;;;4.85;;
46675;SDS011;32412;51.478;5.694;2023-07-28T08:32:15;5.57;;;4.78;;
46675;SDS011;32412;51.478;5.694;2023-07-28T08:34:42;5.68;;;4.45;;
46675;SDS011;32412;51.478;5.694;2023-07-28T08:37:08;5.57;;;4.07;;
46675;SDS011;32412;51.478;5.694;2023-07-28T08:39:34;4.78;;;4.05;;
46675;SDS011;32412;51.478;5.694;2023-07-28T08:42:00;4.35;;;3.95;;
46675;SDS011;32412;51.478;5.694;2023-07-28T08:44:27;4.85;;;4.43;;
46675;SDS011;32412;51.478;5.694;2023-07-28T08:46:55;6.05;;;4.43;;
46675;SDS011;32412;51.478;5.694;2023-07-28T08:49:21;7.05;;;4.13;;
46675;SDS011;32412;51.478;5.694;2023-07-28T08:51:50;4.18;;;3.78;;
46675;SDS011;32412;51.478;5.694;2023-07-28T08:54:16;6.60;;;4.38;;
46675;SDS011;32412;51.478;5.694;2023-07-28T08:56:42;4.90;;;3.03;;
46675;SDS011;32412;51.478;5.694;2023-07-28T08:59:08;3.80;;;3.35;;
46675;SDS011;32412;51.478;5.694;2023-07-28T09:01:40;3.75;;;3.40;;
46675;SDS011;32412;51.478;5.694;2023-07-28T09:04:11;3.03;;;2.78;;
46675;SDS011;32412;51.478;5.694;2023-07-28T09:06:37;3.25;;;3.00;;
46675;SDS011;32412;51.478;5.694;2023-07-28T09:09:06;3.00;;;2.70;;
46675;SDS011;32412;51.478;5.694;2023-07-28T09:11:32;3.00;;;2.80;;
46675;SDS011;32412;51.478;5.694;2023-07-28T09:13:59;2.97;;;2.47;;
46675;SDS011;32412;51.478;5.694;2023-07-28T09:16:25;4.25;;;2.90;;
46675;SDS011;32412;51.478;5.694;2023-07-28T09:19:04;3.53;;;2.88;;
46675;SDS011;32412;51.478;5.694;2023-07-28T09:21:33;2.78;;;2.42;;
46675;SDS011;32412;51.478;5.694;2023-07-28T09:24:05;2.97;;;2.33;;
46675;SDS011;32412;51.478;5.694;2023-07-28T09:31:40;4.53;;;1.98;;
46675;SDS011;32412;51.478;5.694;2023-07-28T09:34:06;3.05;;;2.10;;
46675;SDS011;32412;51.478;5.694;2023-07-28T09:36:38;2.90;;;2.50;;
46675;SDS011;32412;51.478;5.694;2023-07-28T09:39:05;3.75;;;2.13;;
46675;SDS011;32412;51.478;5.694;2023-07-28T09:41:35;2.20;;;2.00;;
46675;SDS011;32412;51.478;5.694;2023-07-28T09:44:04;3.08;;;2.42;;
46675;SDS011;32412;51.478;5.694;2023-07-28T09:46:34;2.72;;;2.53;;
46675;SDS011;32412;51.478;5.694;2023-07-28T09:49:03;3.20;;;2.53;;
46675;SDS011;32412;51.478;5.694;2023-07-28T09:51:34;2.75;;;2.47;;
46675;SDS011;32412;51.478;5.694;2023-07-28T09:54:08;2.00;;;1.90;;
46675;SDS011;32412;51.478;5.694;2023-07-28T09:56:43;2.97;;;1.95;;
46675;SDS011;32412;51.478;5.694;2023-07-28T09:59:12;2.90;;;2.50;;
46675;SDS011;32412;51.478;5.694;2023-07-28T10:01:42;3.45;;;2.17;;
46675;SDS011;32412;51.478;5.694;2023-07-28T10:04:10;3.95;;;2.38;;
46675;SDS011;32412;51.478;5.694;2023-07-28T10:06:36;10.57;;;2.20;;
46675;SDS011;32412;51.478;5.694;2023-07-28T10:09:03;1.95;;;1.85;;
46675;SDS011;32412;51.478;5.694;2023-07-28T10:11:30;1.90;;;1.80;;
46675;SDS011;32412;51.478;5.694;2023-07-28T10:13:57;2.20;;;2.00;;
46675;SDS011;32412;51.478;5.694;2023-07-28T10:16:29;2.00;;;1.90;;
46675;SDS011;32412;51.478;5.694;2023-07-28T10:18:58;1.77;;;1.67;;
46675;SDS011;32412;51.478;5.694;2023-07-28T10:21:26;2.40;;;2.20;;
46675;SDS011;32412;51.478;5.694;2023-07-28T10:23:55;2.03;;;1.92;;
46675;SDS011;32412;51.478;5.694;2023-07-28T10:26:31;2.13;;;1.92;;
46675;SDS011;32412;51.478;5.694;2023-07-28T10:29:13;1.80;;;1.70;;
46675;SDS011;32412;51.478;5.694;2023-07-28T10:31:55;1.65;;;1.58;;
46675;SDS011;32412;51.478;5.694;2023-07-28T10:34:22;2.70;;;1.70;;
46675;SDS011;32412;51.478;5.694;2023-07-28T10:36:55;2.40;;;2.20;;
46675;SDS011;32412;51.478;5.694;2023-07-28T10:39:24;2.25;;;1.95;;
46675;SDS011;32412;51.478;5.694;2023-07-28T10:44:28;3.45;;;1.90;;
46675;SDS011;32412;51.478;5.694;2023-07-28T10:46:54;2.15;;;1.60;;
46675;SDS011;32412;51.478;5.694;2023-07-28T10:49:20;1.33;;;1.23;;
46675;SDS011;32412;51.478;5.694;2023-07-28T10:51:46;1.50;;;1.40;;
46675;SDS011;32412;51.478;5.694;2023-07-28T10:54:11;1.60;;;1.50;;
46675;SDS011;32412;51.478;5.694;2023-07-28T10:56:43;1.23;;;1.15;;
46675;SDS011;32412;51.478;5.694;2023-07-28T10:59:09;1.38;;;1.27;;
46675;SDS011;32412;51.478;5.694;2023-07-28T11:01:38;2.22;;;1.38;;
46675;SDS011;32412;51.478;5.694;2023-07-28T11:04:18;1.10;;;1.10;;
46675;SDS011;32412;51.478;5.694;2023-07-28T11:06:46;2.22;;;1.30;;
46675;SDS011;32412;51.478;5.694;2023-07-28T11:09:14;1.65;;;1.30;;
46675;SDS011;32412;51.478;5.694;2023-07-28T11:11:43;1.33;;;1.23;;
46675;SDS011;32412;51.478;5.694;2023-07-28T11:14:11;2.08;;;1.58;;
46675;SDS011;32412;51.478;5.694;2023-07-28T11:16:40;1.30;;;1.30;;
46675;SDS011;32412;51.478;5.694;2023-07-28T11:19:10;1.33;;;1.33;;
46675;SDS011;32412;51.478;5.694;2023-07-28T11:21:39;1.95;;;1.20;;
46675;SDS011;32412;51.478;5.694;2023-07-28T11:24:09;1.45;;;1.20;;
46675;SDS011;32412;51.478;5.694;2023-07-28T11:26:36;1.85;;;1.50;;
46675;SDS011;32412;51.478;5.694;2023-07-28T11:29:03;1.85;;;1.25;;
46675;SDS011;32412;51.478;5.694;2023-07-28T11:31:30;2.35;;;1.30;;
46675;SDS011;32412;51.478;5.694;2023-07-28T11:33:55;1.10;;;1.10;;
46675;SDS011;32412;51.478;5.694;2023-07-28T11:36:39;2.05;;;1.20;;
46675;SDS011;32412;51.478;5.694;2023-07-28T11:39:06;2.13;;;1.15;;
46675;SDS011;32412;51.478;5.694;2023-07-28T11:41:33;2.17;;;1.20;;
46675;SDS011;32412;51.478;5.694;2023-07-28T11:43:59;1.02;;;1.02;;
46675;SDS011;32412;51.478;5.694;2023-07-28T11:46:40;1.10;;;1.10;;
46675;SDS011;32412;51.478;5.694;2023-07-28T11:51:55;1.08;;;1.08;;
46675;SDS011;32412;51.478;5.694;2023-07-28T11:54:24;1.45;;;0.80;;
46675;SDS011;32412;51.478;5.694;2023-07-28T11:56:53;0.93;;;0.80;;
46675;SDS011;32412;51.478;5.694;2023-07-28T11:59:20;2.10;;;0.95;;
46675;SDS011;32412;51.478;5.694;2023-07-28T12:01:57;0.70;;;0.70;;
46675;SDS011;32412;51.478;5.694;2023-07-28T12:04:24;2.17;;;0.90;;
46675;SDS011;32412;51.478;5.694;2023-07-28T12:07:01;0.95;;;0.95;;
46675;SDS011;32412;51.478;5.694;2023-07-28T12:09:28;0.80;;;0.80;;
46675;SDS011;32412;51.478;5.694;2023-07-28T12:11:54;1.05;;;1.05;;
46675;SDS011;32412;51.478;5.694;2023-07-28T12:14:32;0.98;;;0.80;;
46675;SDS011;32412;51.478;5.694;2023-07-28T12:16:58;1.00;;;1.00;;
46675;SDS011;32412;51.478;5.694;2023-07-28T12:19:24;1.17;;;1.08;;
46675;SDS011;32412;51.478;5.694;2023-07-28T12:21:50;1.00;;;0.90;;
46675;SDS011;32412;51.478;5.694;2023-07-28T12:24:16;2.85;;;0.90;;
46675;SDS011;32412;51.478;5.694;2023-07-28T12:26:41;1.23;;;1.10;;
46675;SDS011;32412;51.478;5.694;2023-07-28T12:29:07;1.20;;;1.10;;
46675;SDS011;32412;51.478;5.694;2023-07-28T12:31:33;1.10;;;1.10;;
46675;SDS011;32412;51.478;5.694;2023-07-28T12:33:58;1.23;;;1.10;;
46675;SDS011;32412;51.478;5.694;2023-07-28T12:36:24;1.23;;;0.80;;
46675;SDS011;32412;51.478;5.694;2023-07-28T12:38:50;2.75;;;0.90;;
46675;SDS011;32412;51.478;5.694;2023-07-28T12:41:15;1.05;;;1.05;;
46675;SDS011;32412;51.478;5.694;2023-07-28T12:43:41;0.93;;;0.88;;
46675;SDS011;32412;51.478;5.694;2023-07-28T12:46:06;1.30;;;0.95;;
46675;SDS011;32412;51.478;5.694;2023-07-28T12:48:32;2.17;;;0.85;;
46675;SDS011;32412;51.478;5.694;2023-07-28T12:50:58;0.80;;;0.80;;
46675;SDS011;32412;51.478;5.694;2023-07-28T12:53:23;1.13;;;0.90;;
46675;SDS011;32412;51.478;5.694;2023-07-28T12:55:49;0.90;;;0.90;;
46675;SDS011;32412;51.478;5.694;2023-07-28T12:58:15;3.13;;;0.73;;
46675;SDS011;32412;51.478;5.694;2023-07-28T13:00:41;1.45;;;0.98;;
46675;SDS011;32412;51.478;5.694;2023-07-28T13:03:06;3.63;;;0.90;;
46675;SDS011;32412;51.478;5.694;2023-07-28T13:05:32;0.63;;;0.63;;
46675;SDS011;32412;51.478;5.694;2023-07-28T13:07:57;0.63;;;0.63;;
46675;SDS011;32412;51.478;5.694;2023-07-28T13:10:23;1.15;;;0.70;;
46675;SDS011;32412;51.478;5.694;2023-07-28T13:12:49;2.38;;;0.65;;
46675;SDS011;32412;51.478;5.694;2023-07-28T13:15:14;0.90;;;0.80;;
46675;SDS011;32412;51.478;5.694;2023-07-28T13:17:40;1.30;;;0.80;;
46675;SDS011;32412;51.478;5.694;2023-07-28T13:20:06;0.77;;;0.60;;
46675;SDS011;32412;51.478;5.694;2023-07-28T13:22:32;0.57;;;0.57;;
46675;SDS011;32412;51.478;5.694;2023-07-28T13:24:58;1.00;;;0.73;;
46675;SDS011;32412;51.478;5.694;2023-07-28T13:27:23;0.50;;;0.50;;
46675;SDS011;32412;51.478;5.694;2023-07-28T13:29:49;0.47;;;0.47;;
46675;SDS011;32412;51.478;5.694;2023-07-28T13:32:22;0.68;;;0.60;;
46675;SDS011;32412;51.478;5.694;2023-07-28T13:34:50;0.60;;;0.60;;
46675;SDS011;32412;51.478;5.694;2023-07-28T13:37:17;0.52;;;0.50;;
46675;SDS011;32412;51.478;5.694;2023-07-28T13:39:42;0.77;;;0.60;;
46675;SDS011;32412;51.478;5.694;2023-07-28T13:42:08;1.95;;;0.47;;
46675;SDS011;32412;51.478;5.694;2023-07-28T13:44:34;0.70;;;0.70;;
46675;SDS011;32412;51.478;5.694;2023-07-28T13:47:00;2.38;;;0.60;;
46675;SDS011;32412;51.478;5.694;2023-07-28T13:49:26;0.55;;;0.55;;
46675;SDS011;32412;51.478;5.694;2023-07-28T13:51:51;1.98;;;0.40;;
46675;SDS011;32412;51.478;5.694;2023-07-28T13:54:17;0.50;;;0.50;;
46675;SDS011;32412;51.478;5.694;2023-07-28T13:56:43;0.57;;;0.57;;
46675;SDS011;32412;51.478;5.694;2023-07-28T13:59:09;0.50;;;0.50;;
46675;SDS011;32412;51.478;5.694;2023-07-28T14:01:34;0.40;;;0.40;;
46675;SDS011;32412;51.478;5.694;2023-07-28T14:04:00;1.65;;;0.63;;
46675;SDS011;32412;51.478;5.694;2023-07-28T14:06:26;0.50;;;0.50;;
46675;SDS011;32412;51.478;5.694;2023-07-28T14:08:51;1.40;;;0.68;;
46675;SDS011;32412;51.478;5.694;2023-07-28T14:11:17;2.40;;;2.10;;
46675;SDS011;32412;51.478;5.694;2023-07-28T14:13:43;0.68;;;0.68;;
46675;SDS011;32412;51.478;5.694;2023-07-28T14:16:08;0.70;;;0.70;;
46675;SDS011;32412;51.478;5.694;2023-07-28T14:18:35;0.77;;;0.70;;
46675;SDS011;32412;51.478;5.694;2023-07-28T14:21:00;0.77;;;0.77;;
46675;SDS011;32412;51.478;5.694;2023-07-28T14:23:27;2.53;;;0.80;;
46675;SDS011;32412;51.478;5.694;2023-07-28T14:25:53;1.23;;;0.80;;
46675;SDS011;32412;51.478;5.694;2023-07-28T14:28:20;1.75;;;0.70;;
46675;SDS011;32412;51.478;5.694;2023-07-28T14:30:46;1.05;;;0.88;;
46675;SDS011;32412;51.478;5.694;2023-07-28T14:33:13;2.05;;;1.00;;
46675;SDS011;32412;51.478;5.694;2023-07-28T14:35:39;1.27;;;1.13;;
46675;SDS011;32412;51.478;5.694;2023-07-28T14:38:05;3.03;;;1.35;;
46675;SDS011;32412;51.478;5.694;2023-07-28T14:40:30;2.60;;;1.58;;
46675;SDS011;32412;51.478;5.694;2023-07-28T14:42:56;1.23;;;1.13;;
46675;SDS011;32412;51.478;5.694;2023-07-28T14:45:22;1.63;;;1.10;;
46675;SDS011;32412;51.478;5.694;2023-07-28T14:47:47;3.80;;;1.30;;
46675;SDS011;32412;51.478;5.694;2023-07-28T14:50:13;4.53;;;1.27;;